Time;durP1;ratioP1;P1;durP2;ratioP2;P2;SDS_P1;SDS_P2;PMS_P1;PMS_P2;Temp;Humidity;BMP_temperature;BMP_pressure;BME280_temperature;BME280_humidity;BME280_pressure;Samples;Min_cycle;Max_cycle;Signal;HPM_P1;HPM_P2
2022/05/28 00:03:51;;;;;;;6.85;2.90;;;;;;;15.32;74.51;100490.72;10454324;28;20044;-72
2022/05/28 00:08:52;;;;;;;5.05;2.42;;;;;;;15.11;73.97;100466.72;10454443;28;20044;-72
2022/05/28 00:13:53;;;;;;;9.50;2.70;;;;;;;14.93;74.20;100446.59;10454458;28;20450;-72
2022/05/28 00:18:54;;;;;;;3.67;2.28;;;;;;;14.95;74.03;100479.31;10452755;28;20056;-72
2022/05/28 00:23:55;;;;;;;7.85;2.72;;;;;;;14.67;74.27;100467.78;10454124;28;20077;-72
2022/05/28 00:28:56;;;;;;;8.35;2.90;;;;;;;14.76;74.41;100469.28;10454089;28;20082;-72
2022/05/28 00:33:56;;;;;;;21.60;3.20;;;;;;;14.67;74.00;100476.63;10453224;28;20041;-72
2022/05/28 00:38:57;;;;;;;14.27;3.05;;;;;;;14.53;74.10;100483.66;10453332;28;20131;-72
2022/05/28 00:43:58;;;;;;;10.90;3.00;;;;;;;13.58;74.35;100337.78;10454226;28;20056;-72
2022/05/28 00:49:04;;;;;;;15.40;3.25;;;;;;;14.42;74.94;100477.97;10453756;28;20052;-72
2022/05/28 00:54:06;;;;;;;36.42;4.95;;;;;;;14.35;74.71;100480.56;10453646;28;20045;-72
2022/05/28 00:59:08;;;;;;;15.23;4.05;;;;;;;14.26;74.54;100471.84;10453515;28;20064;-72
2022/05/28 01:04:42;;;;;;;17.00;3.67;;;;;;;14.20;74.67;100469.09;10458976;28;20174;-72
2022/05/28 01:10:14;;;;;;;27.25;3.92;;;;;;;14.07;76.79;100443.06;10449101;28;20136;-71
2022/05/28 01:15:26;;;;;;;32.05;4.35;;;;;;;14.14;76.14;100460.00;10460789;28;20048;-71
2022/05/28 01:20:34;;;;;;;14.88;4.07;;;;;;;13.88;77.19;100456.00;10460306;28;20052;-72
2022/05/28 01:26:15;;;;;;;25.02;4.20;;;;;;;13.92;78.50;100473.31;10501716;28;20040;-72
2022/05/28 01:31:17;;;;;;;7.32;3.22;;;;;;;12.86;76.57;100317.09;10501006;28;20054;-72
2022/05/28 01:36:19;;;;;;;23.27;3.72;;;;;;;13.66;77.08;100483.66;10500667;28;20078;-72
2022/05/28 01:41:20;;;;;;;74.05;6.68;;;;;;;13.59;77.15;100475.56;10500712;28;20040;-71
2022/05/28 01:46:27;;;;;;;35.13;4.60;;;;;;;13.39;77.93;100458.44;10501118;28;20041;-71
2022/05/28 01:51:34;;;;;;;17.42;3.50;;;;;;;13.61;78.47;100478.03;10500555;28;20032;-72
2022/05/28 01:56:37;;;;;;;17.40;4.15;;;;;;;13.16;78.41;100429.97;10500743;28;20053;-72
2022/05/28 02:01:37;;;;;;;52.03;6.25;;;;;;;12.98;77.91;100370.78;10499819;28;20042;-72
2022/05/28 02:06:41;;;;;;;16.83;3.47;;;;;;;13.20;77.75;100403.75;10470574;28;20055;-72
2022/05/28 02:12:07;;;;;;;14.88;3.63;;;;;;;13.01;79.15;100365.09;10417389;28;20048;-71
2022/05/28 02:17:20;;;;;;;23.60;4.35;;;;;;;13.21;78.27;100336.88;10416795;28;20175;-71
2022/05/28 02:22:45;;;;;;;21.00;4.55;;;;;;;14.80;76.25;100475.91;10416902;28;20037;-71
2022/05/28 02:27:49;;;;;;;24.60;4.35;;;;;;;15.06;74.08;100429.81;10416847;28;20133;-71
2022/05/28 02:32:59;;;;;;;19.50;3.88;;;;;;;15.98;73.22;100477.72;10416116;28;20517;-71
2022/05/28 02:38:00;;;;;;;21.88;4.20;;;;;;;16.55;71.49;100478.31;10421439;28;20056;-72
2022/05/28 02:43:01;;;;;;;12.20;3.28;;;;;;;16.98;70.22;100459.16;10428241;28;20040;-73
2022/05/28 02:48:02;;;;;;;6.10;2.70;;;;;;;17.94;68.34;100480.03;10457203;28;20442;-73
2022/05/28 02:53:03;;;;;;;23.52;4.20;;;;;;;19.21;64.60;100449.63;10458174;28;20131;-73
2022/05/28 02:58:03;;;;;;;4.40;2.50;;;;;;;20.56;60.36;100467.53;10497519;28;20046;-73
2022/05/28 03:03:04;;;;;;;5.85;2.70;;;;;;;21.53;57.26;100432.00;10498021;28;20047;-73
2022/05/28 03:08:05;;;;;;;4.75;2.67;;;;;;;22.06;54.16;100352.44;10497565;28;20051;-73
2022/05/28 03:13:06;;;;;;;6.93;3.10;;;;;;;22.93;52.91;100413.44;10497920;28;20041;-73
2022/05/28 03:18:07;;;;;;;9.73;2.65;;;;;;;23.50;51.10;100431.34;10496922;28;20040;-73
2022/05/28 03:23:08;;;;;;;5.90;2.55;;;;;;;23.57;49.67;100337.91;10475978;28;20060;-72
2022/05/28 03:28:09;;;;;;;6.78;3.17;;;;;;;24.51;47.56;100456.13;10464198;28;20052;-73
2022/05/28 03:33:10;;;;;;;4.53;2.50;;;;;;;24.93;47.26;100419.25;10415584;28;20037;-73
2022/05/28 03:38:11;;;;;;;6.35;2.90;;;;;;;24.88;46.15;100341.22;10454703;28;20087;-73
2022/05/28 03:43:11;;;;;;;7.80;3.20;;;;;;;26.10;44.96;100419.00;10454358;28;20135;-73
2022/05/28 03:48:12;;;;;;;14.57;3.10;;;;;;;26.44;43.57;100451.19;10436658;28;20045;-74
2022/05/28 03:53:15;;;;;;;4.72;2.70;;;;;;;26.00;42.56;100335.44;10413428;28;20081;-72
2022/05/28 03:58:16;;;;;;;9.40;3.08;;;;;;;26.72;42.60;100428.09;10413076;28;20045;-74
2022/05/28 04:03:17;;;;;;;5.63;2.92;;;;;;;27.48;41.02;100447.03;10413140;28;20076;-73
2022/05/28 04:08:18;;;;;;;12.45;2.78;;;;;;;27.50;40.31;100455.75;10413430;28;20528;-73
2022/05/28 04:13:19;;;;;;;13.40;2.90;;;;;;;28.15;39.62;100452.19;10412470;28;20053;-75
2022/05/28 04:18:19;;;;;;;7.15;3.20;;;;;;;27.63;38.79;100372.47;10412564;28;20050;-75
2022/05/28 04:23:20;;;;;;;7.88;2.85;;;;;;;27.62;37.61;100331.84;10447032;28;20640;-74
2022/05/28 04:28:21;;;;;;;6.72;2.60;;;;;;;27.82;37.50;100437.38;10462618;28;20140;-73
2022/05/28 04:33:22;;;;;;;17.52;2.85;;;;;;;27.13;38.18;100438.91;10453960;28;20048;-73
2022/05/28 04:38:23;;;;;;;4.15;2.63;;;;;;;27.08;38.36;100417.94;10492319;28;20052;-73
2022/05/28 04:43:24;;;;;;;5.97;2.42;;;;;;;25.99;38.58;100294.84;10499565;28;20412;-72
2022/05/28 04:48:25;;;;;;;5.43;2.72;;;;;;;26.79;39.07;100434.06;10488382;28;20045;-73
2022/05/28 04:53:26;;;;;;;5.70;2.17;;;;;;;26.18;39.35;100421.22;10425030;28;20053;-72
2022/05/28 04:58:27;;;;;;;18.75;2.13;;;;;;;25.71;39.64;100414.78;10415233;28;20409;-73
2022/05/28 05:03:28;;;;;;;4.97;2.10;;;;;;;25.37;40.12;100418.97;10415019;28;20037;-72
2022/05/28 05:08:30;;;;;;;4.45;2.05;;;;;;;25.29;39.59;100420.31;10414437;28;20049;-73
2022/05/28 05:13:31;;;;;;;6.60;1.90;;;;;;;24.85;39.72;100320.00;10412620;28;20041;-71
2022/05/28 05:18:32;;;;;;;7.13;2.38;;;;;;;25.50;39.28;100407.63;10415026;28;20469;-72
2022/05/28 05:23:33;;;;;;;5.97;2.58;;;;;;;25.03;39.91;100403.81;10417904;28;20052;-72
2022/05/28 05:28:33;;;;;;;13.82;2.83;;;;;;;25.03;40.77;100403.00;10418092;28;20052;-72
2022/05/28 05:33:34;;;;;;;6.60;3.10;;;;;;;24.60;40.78;100345.94;10415898;28;20037;-72
2022/05/28 05:38:35;;;;;;;5.60;3.08;;;;;;;24.65;40.74;100382.34;10418231;28;20057;-73
2022/05/28 05:43:36;;;;;;;6.85;2.50;;;;;;;24.82;40.86;100366.72;10416559;28;20056;-73
2022/05/28 05:48:37;;;;;;;23.15;3.20;;;;;;;25.15;40.93;100383.81;10416688;28;20041;-73
2022/05/28 05:53:38;;;;;;;11.32;2.95;;;;;;;25.37;40.72;100361.88;10414536;28;20041;-72
2022/05/28 05:58:39;;;;;;;8.13;2.72;;;;;;;25.82;41.49;100383.03;10416757;28;20045;-73
2022/05/28 06:03:44;;;;;;;4.38;1.75;;;;;;;25.88;40.45;100365.63;10416535;28;20124;-72
2022/05/28 06:08:46;;;;;;;3.47;1.85;;;;;;;25.73;39.88;100374.53;10416435;28;20091;-72
2022/05/28 06:13:47;;;;;;;2.05;1.48;;;;;;;25.53;39.36;100360.88;10415273;28;20049;-72
2022/05/28 06:18:48;;;;;;;5.65;1.73;;;;;;;25.58;39.51;100360.06;10415622;28;20049;-72
2022/05/28 06:23:48;;;;;;;9.98;1.90;;;;;;;25.72;39.75;100353.03;10414803;28;20041;-72
2022/05/28 06:28:49;;;;;;;3.17;1.58;;;;;;;24.77;40.11;100228.16;10416280;28;20072;-72
2022/05/28 06:33:50;;;;;;;9.73;1.60;;;;;;;25.66;40.08;100332.31;10415317;28;20038;-72
2022/05/28 06:38:51;;;;;;;7.03;1.50;;;;;;;26.09;39.39;100350.13;10416614;28;20489;-73
2022/05/28 06:43:52;;;;;;;4.63;1.80;;;;;;;26.08;39.26;100336.78;10413727;28;20083;-73
2022/05/28 06:48:52;;;;;;;8.60;1.52;;;;;;;26.24;38.24;100334.91;10415619;28;20038;-70
2022/05/28 06:53:53;;;;;;;2.65;1.20;;;;;;;25.40;37.74;100215.34;10414640;28;20413;-72
2022/05/28 06:58:54;;;;;;;2.80;1.30;;;;;;;26.18;37.46;100345.78;10470167;28;20041;-73
2022/05/28 07:03:55;;;;;;;9.70;1.80;;;;;;;25.44;37.82;100200.09;10453894;28;20122;-74
2022/05/28 07:08:56;;;;;;;5.68;1.50;;;;;;;26.23;37.27;100278.78;10441714;28;20055;-72
2022/05/28 07:13:56;;;;;;;7.97;1.58;;;;;;;26.71;37.28;100311.97;10495824;28;20047;-72
2022/05/28 07:18:57;;;;;;;8.70;1.58;;;;;;;26.72;36.80;100319.88;10493962;28;20040;-73
2022/05/28 07:23:58;;;;;;;5.80;1.63;;;;;;;26.66;36.96;100293.75;10494856;28;20040;-73
2022/05/28 07:28:59;;;;;;;9.57;1.95;;;;;;;26.10;37.00;100195.78;10451111;28;20386;-73
2022/05/28 07:33:59;;;;;;;3.65;1.20;;;;;;;26.96;36.75;100281.13;10454478;28;20045;-72
2022/05/28 07:39:00;;;;;;;6.00;1.55;;;;;;;27.39;36.53;100292.41;10449685;28;20053;-73
2022/05/28 07:44:01;;;;;;;3.20;1.50;;;;;;;26.57;35.36;100137.41;10421461;28;20040;-73
2022/05/28 07:49:04;;;;;;;4.10;1.60;;;;;;;27.66;35.05;100272.84;10418419;28;20473;-72
2022/05/28 07:54:06;;;;;;;6.28;1.30;;;;;;;27.81;34.84;100255.59;10426557;28;20087;-72
2022/05/28 07:59:07;;;;;;;6.22;1.45;;;;;;;27.78;34.35;100265.16;10412338;28;20045;-72
2022/05/28 08:04:09;;;;;;;15.77;1.65;;;;;;;26.76;33.92;100138.38;10412723;28;20091;-72
2022/05/28 08:09:12;;;;;;;20.50;2.57;;;;;;;27.71;35.12;100265.47;10411372;28;20512;-70
2022/05/28 08:14:12;;;;;;;22.52;1.83;;;;;;;27.81;35.44;100226.38;10411661;28;20053;-72
2022/05/28 08:19:13;;;;;;;21.05;2.55;;;;;;;28.19;35.26;100234.78;10411050;28;20448;-71
2022/05/28 08:24:14;;;;;;;6.20;1.70;;;;;;;27.57;34.40;100117.13;10411218;28;20441;-72
2022/05/28 08:29:15;;;;;;;5.50;1.75;;;;;;;28.17;34.15;100213.22;10442816;28;20045;-73
2022/05/28 08:34:16;;;;;;;11.90;2.08;;;;;;;28.22;34.57;100176.84;10451515;28;20072;-72
2022/05/28 08:39:16;;;;;;;10.60;1.98;;;;;;;28.36;34.57;100212.47;10451113;28;20052;-71
2022/05/28 08:44:27;;;;;;;6.53;1.60;;;;;;;27.73;33.70;100161.44;10451825;28;20049;-72
2022/05/28 08:49:29;;;;;;;4.93;1.45;;;;;;;27.96;33.80;100173.56;10460208;28;20496;-70
2022/05/28 08:54:33;;;;;;;5.22;1.65;;;;;;;28.42;32.23;100203.16;10492590;28;20045;-72
2022/05/28 08:59:44;;;;;;;8.18;1.58;;;;;;;28.30;32.82;100139.88;10492769;28;20403;-70
2022/05/28 09:04:46;;;;;;;8.38;1.92;;;;;;;28.49;33.15;100180.97;10493884;28;20097;-69
2022/05/28 09:09:49;;;;;;;8.83;1.60;;;;;;;28.78;33.71;100195.34;10493365;28;20071;-69
2022/05/28 09:14:49;;;;;;;4.45;1.77;;;;;;;28.75;32.62;100185.00;10493293;28;20044;-69
2022/05/28 09:19:52;;;;;;;8.45;2.13;;;;;;;28.54;32.32;100107.94;10494332;28;20059;-68
2022/05/28 09:24:53;;;;;;;5.22;1.70;;;;;;;28.75;32.95;100129.50;10497404;28;20118;-69
2022/05/28 09:58:00;;;;;;;15.60;2.50;;;;;;;29.15;30.38;100121.84;10514719;27;1767226;-68
2022/05/28 10:08:30;;;;;;;5.03;1.60;;;;;;;29.03;30.88;100030.13;10572671;28;20043;-68
2022/05/28 10:13:52;;;;;;;2.72;1.60;;;;;;;29.77;31.19;100134.25;10539854;28;20098;-67
2022/05/28 10:18:58;;;;;;;13.73;2.05;;;;;;;29.68;32.56;100135.25;10527732;28;20040;-69
2022/05/28 10:24:05;;;;;;;9.20;1.88;;;;;;;29.66;30.04;100104.63;10524190;28;20051;-68
2022/05/28 10:29:17;;;;;;;6.93;1.92;;;;;;;29.33;30.38;100026.06;10510114;28;19943;-69
2022/05/28 10:34:28;;;;;;;8.25;1.60;;;;;;;29.78;30.76;100103.00;10529076;28;20451;-69
2022/05/28 10:39:28;;;;;;;13.35;2.13;;;;;;;29.17;30.42;99972.75;10529096;28;20044;-66
2022/05/28 10:44:29;;;;;;;10.73;2.17;;;;;;;28.98;29.90;99964.56;10510644;28;20532;-66
2022/05/28 10:49:56;;;;;;;8.10;1.70;;;;;;;30.13;29.87;100097.97;10528900;28;20044;-67
2022/05/28 10:55:20;;;;;;;10.63;1.73;;;;;;;30.08;29.85;100064.38;10528542;28;20048;-67
2022/05/28 11:00:30;;;;;;;13.02;1.90;;;;;;;30.12;27.90;100095.53;10511186;28;20044;-68
2022/05/28 11:06:04;;;;;;;13.35;2.03;;;;;;;30.18;29.74;100083.34;10520238;28;20056;-67
2022/05/28 11:11:26;;;;;;;12.50;2.22;;;;;;;30.32;28.91;100102.56;10482052;28;20051;-66
2022/05/28 11:16:41;;;;;;;6.80;1.80;;;;;;;30.17;28.98;100087.22;10499420;28;20090;-66
2022/05/28 11:22:00;;;;;;;4.38;1.50;;;;;;;29.02;29.48;99889.06;10499975;28;20044;-66
2022/05/28 11:27:18;;;;;;;10.90;1.98;;;;;;;30.28;29.10;100074.16;10500616;28;20044;-66
2022/05/28 11:32:25;;;;;;;3.67;1.58;;;;;;;30.35;28.54;100072.63;10482732;28;20044;-66
2022/05/28 11:37:55;;;;;;;7.85;1.67;;;;;;;30.33;28.90;100068.53;10500594;28;20083;-66
2022/05/28 11:43:05;;;;;;;4.40;1.48;;;;;;;29.74;28.23;99969.78;10459137;28;20048;-66
2022/05/28 11:48:14;;;;;;;11.50;1.70;;;;;;;30.25;29.55;100023.53;10499696;28;20447;-67
2022/05/28 11:53:33;;;;;;;7.30;2.10;;;;;;;30.67;28.98;100054.38;10499444;28;20044;-66
2022/05/28 11:58:46;;;;;;;12.93;2.08;;;;;;;29.74;28.40;99920.50;10499641;28;20068;-66
2022/05/28 12:03:47;;;;;;;4.28;1.65;;;;;;;30.62;28.34;100044.31;10499476;28;20048;-66
2022/05/28 12:09:04;;;;;;;7.32;1.60;;;;;;;30.53;27.24;100043.44;10498861;28;20041;-67
2022/05/28 12:14:27;;;;;;;9.43;2.00;;;;;;;30.60;27.43;100038.34;10499132;28;20049;-67
2022/05/28 12:19:29;;;;;;;7.22;2.00;;;;;;;30.48;28.32;100035.31;10497364;28;20131;-66
2022/05/28 12:24:30;;;;;;;6.63;2.00;;;;;;;30.59;27.80;100038.66;10498673;28;20045;-66
2022/05/28 12:29:43;;;;;;;8.82;1.55;;;;;;;30.54;27.71;100041.50;10498660;28;20484;-68
2022/05/28 12:35:07;;;;;;;4.18;1.92;;;;;;;30.59;27.79;100050.44;10475286;28;20044;-66
2022/05/28 12:40:45;;;;;;;5.15;1.77;;;;;;;30.54;27.36;100036.84;10497497;28;20124;-66
2022/05/28 12:45:49;;;;;;;5.95;1.70;;;;;;;30.40;27.62;100039.63;10459807;28;20408;-65
2022/05/28 12:51:12;;;;;;;8.23;2.03;;;;;;;30.41;26.91;100040.44;10456354;28;20401;-66
2022/05/28 12:56:33;;;;;;;10.30;2.47;;;;;;;30.41;25.96;100030.28;10454044;28;20512;-65
2022/05/28 13:01:37;;;;;;;11.02;1.67;;;;;;;30.36;27.63;100024.91;10444969;28;20068;-67
2022/05/28 13:06:50;;;;;;;3.80;1.92;;;;;;;29.77;27.48;99930.84;10455059;28;20056;-66
2022/05/28 13:12:28;;;;;;;4.28;1.60;;;;;;;30.14;27.28;99998.22;10455464;28;20048;-66
2022/05/28 13:18:01;;;;;;;4.68;1.63;;;;;;;30.41;26.50;100019.31;10486329;28;20036;-66
2022/05/28 13:23:43;;;;;;;10.18;2.08;;;;;;;30.41;27.47;100021.25;10496144;28;20454;-67
2022/05/28 13:29:10;;;;;;;7.40;1.55;;;;;;;30.43;27.70;100016.28;10468275;28;20579;-67
2022/05/28 13:34:24;;;;;;;29.42;3.28;;;;;;;30.28;27.26;100014.69;10477491;28;20105;-66
2022/05/28 13:39:26;;;;;;;5.68;2.78;;;;;;;29.89;27.11;99999.59;10496234;28;20532;-67
2022/05/28 13:44:30;;;;;;;5.93;2.08;;;;;;;30.07;27.35;100027.97;10496026;28;20036;-66
2022/05/28 13:49:33;;;;;;;7.97;2.22;;;;;;;29.22;27.40;99889.78;10496033;28;20510;-66
2022/05/28 13:54:33;;;;;;;13.88;2.20;;;;;;;28.86;27.86;99825.59;10496017;28;20056;-66
2022/05/28 13:59:40;;;;;;;10.13;1.80;;;;;;;29.88;27.35;99997.94;10495668;28;20504;-67
2022/05/28 14:04:47;;;;;;;6.90;2.90;;;;;;;29.99;27.30;100006.78;10494996;28;20536;-66
2022/05/28 14:09:48;;;;;;;11.50;1.98;;;;;;;29.62;27.61;99983.19;10495646;28;20041;-67
2022/05/28 14:14:49;;;;;;;6.35;1.70;;;;;;;29.80;27.46;100017.84;10495973;28;20048;-66
2022/05/28 14:19:53;;;;;;;35.15;3.40;;;;;;;29.12;27.45;99918.13;10496263;28;20067;-67
2022/05/28 14:24:55;;;;;;;16.60;3.45;;;;;;;29.43;27.82;99978.53;10495579;28;20439;-66
2022/05/28 14:29:58;;;;;;;30.83;3.28;;;;;;;29.53;28.05;100004.94;10495700;28;20041;-67
2022/05/28 14:35:12;;;;;;;14.52;2.28;;;;;;;29.49;26.84;100017.56;10495622;28;20082;-66
2022/05/28 14:40:21;;;;;;;7.88;1.67;;;;;;;29.41;27.25;100021.84;10495782;28;20055;-66
2022/05/28 14:45:32;;;;;;;12.65;1.80;;;;;;;29.20;27.99;100004.97;10502507;28;20040;-67
2022/05/28 14:50:45;;;;;;;29.08;2.95;;;;;;;28.61;28.04;99928.00;10502434;28;20139;-66
2022/05/28 14:55:47;;;;;;;4.93;1.77;;;;;;;28.88;28.15;99981.16;10501573;28;20052;-67
2022/05/28 15:00:50;;;;;;;24.57;2.60;;;;;;;28.28;28.29;99899.00;10502362;28;20113;-67
2022/05/28 15:05:53;;;;;;;32.05;2.78;;;;;;;28.53;28.61;99972.38;10501160;28;20207;-67
2022/05/28 15:10:54;;;;;;;;;;;;;;;28.87;28.33;100013.16;10501997;28;20040;-65
2022/05/28 15:15:58;;;;;;;13.50;1.75;;;;;;;27.79;28.46;99916.59;10501391;28;19946;-66
2022/05/28 15:21:00;;;;;;;38.45;2.72;;;;;;;28.18;28.96;100015.50;10501307;28;20041;-67
2022/05/28 15:26:03;;;;;;;57.10;3.45;;;;;;;27.60;29.27;99944.63;10500543;28;20044;-66
2022/05/28 15:31:04;;;;;;;15.65;2.50;;;;;;;26.72;30.06;99821.25;10500387;28;20086;-66
2022/05/28 15:41:24;;;;;;;24.17;3.90;;;;;;;27.36;30.84;99996.47;10500058;28;20045;-66
2022/05/28 15:46:25;;;;;;;25.80;4.05;;;;;;;27.41;31.59;100036.53;10500254;28;20158;-67
2022/05/28 15:51:26;;;;;;;11.20;3.75;;;;;;;27.12;31.85;100039.19;10499804;28;20063;-67
2022/05/28 15:56:26;;;;;;;19.67;3.15;;;;;;;26.82;33.10;100050.03;10484510;28;20500;-67
2022/05/28 16:01:29;;;;;;;18.73;3.17;;;;;;;25.94;33.23;99964.47;10499171;28;20046;-65
2022/05/28 16:06:30;;;;;;;10.10;2.07;;;;;;;26.11;33.28;100020.44;10499542;28;20127;-66
2022/05/28 16:11:34;;;;;;;7.82;1.80;;;;;;;25.26;33.71;99945.88;10472399;28;20704;-66
2022/05/28 16:16:35;;;;;;;21.00;2.88;;;;;;;25.67;33.94;100057.31;10440390;28;20047;-66
2022/05/28 16:21:36;;;;;;;10.05;1.88;;;;;;;25.37;34.07;100049.16;10458056;28;20032;-66
2022/05/28 16:26:37;;;;;;;14.98;2.10;;;;;;;24.36;34.37;99934.72;10456048;28;20041;-70
2022/05/28 16:31:39;;;;;;;30.40;3.42;;;;;;;24.21;35.14;99953.69;10456441;28;20048;-69
2022/05/28 16:36:41;;;;;;;11.23;1.73;;;;;;;24.54;35.02;100048.28;10457177;28;20083;-68
2022/05/28 16:41:43;;;;;;;14.98;1.95;;;;;;;24.38;35.40;100076.44;10456120;28;20064;-70
2022/05/28 16:46:44;;;;;;;9.73;1.85;;;;;;;23.94;35.55;100052.34;10456582;28;20086;-69
2022/05/28 16:51:45;;;;;;;8.82;2.10;;;;;;;23.57;35.97;100039.63;10484926;28;20131;-69
2022/05/28 16:56:46;;;;;;;9.52;2.08;;;;;;;23.76;36.16;100088.06;10498060;28;20055;-69
2022/05/28 17:01:47;;;;;;;7.45;1.50;;;;;;;23.58;36.24;100092.78;10497413;28;20580;-70
2022/05/28 17:06:49;;;;;;;11.15;1.83;;;;;;;23.39;36.50;100091.53;10495900;28;20063;-68
2022/05/28 17:11:51;;;;;;;9.02;1.70;;;;;;;23.11;36.49;100079.91;10494200;28;20135;-68
2022/05/28 17:16:53;;;;;;;13.20;1.65;;;;;;;22.87;36.90;100073.16;10494690;28;20534;-69
2022/05/28 17:21:53;;;;;;;8.13;1.40;;;;;;;22.87;37.26;100105.66;10490899;28;20033;-68
2022/05/28 17:26:59;;;;;;;8.63;1.33;;;;;;;22.62;37.47;100095.38;10457273;28;20036;-70
2022/05/28 17:32:05;;;;;;;5.65;1.30;;;;;;;22.62;38.44;100142.22;10474587;28;20041;-69
2022/05/28 17:37:19;;;;;;;8.23;1.50;;;;;;;22.46;38.18;100127.66;10476562;28;20504;-71
2022/05/28 17:42:23;;;;;;;8.77;1.90;;;;;;;21.64;38.27;100022.97;10492694;28;20403;-71
2022/05/28 17:47:25;;;;;;;8.10;2.05;;;;;;;22.34;38.40;100146.72;10475471;28;20040;-70
2022/05/28 17:52:25;;;;;;;22.50;9.45;;;;;;;22.06;38.56;100119.81;10493463;28;20490;-70
2022/05/28 17:57:26;;;;;;;22.50;9.98;;;;;;;22.10;39.19;100146.09;10477269;28;20063;-70
2022/05/28 18:02:30;;;;;;;10.15;2.63;;;;;;;21.82;39.99;100130.81;10471170;28;20048;-70
2022/05/28 18:07:31;;;;;;;;;;;;;;;22.07;39.72;100154.72;10482567;28;20602;-69
2022/05/28 18:12:31;;;;;;;5.25;1.98;;;;;;;21.65;40.11;100122.72;10493516;28;20015;-72
2022/05/28 18:17:34;;;;;;;4.25;1.83;;;;;;;21.75;40.75;100149.09;10499698;28;20041;-70
2022/05/28 18:22:37;;;;;;;9.75;2.50;;;;;;;20.90;40.85;100015.81;10503014;28;20036;-71
2022/05/28 18:27:41;;;;;;;11.25;4.10;;;;;;;20.02;41.46;99882.31;10502802;28;20055;-70
2022/05/28 18:32:42;;;;;;;9.48;3.10;;;;;;;21.55;41.33;100132.56;10503787;28;20051;-69
2022/05/28 18:37:45;;;;;;;12.05;2.85;;;;;;;21.45;42.09;100135.06;10502762;28;20103;-69
2022/05/28 18:42:46;;;;;;;;;;;;;;;21.45;40.91;100132.38;10502754;28;20047;-67
2022/05/28 18:47:47;;;;;;;8.23;1.40;;;;;;;20.91;42.28;100084.13;10500324;28;20467;-70
2022/05/28 18:52:49;;;;;;;17.75;2.05;;;;;;;21.05;43.42;100135.97;10501614;28;20051;-70
2022/05/28 18:57:50;;;;;;;8.30;1.80;;;;;;;20.25;44.07;100029.69;10502762;28;20451;-70
2022/05/28 19:02:51;;;;;;;11.20;1.98;;;;;;;20.79;44.83;100140.06;10483949;28;20043;-69
2022/05/28 19:07:51;;;;;;;4.50;1.55;;;;;;;20.71;45.30;100135.88;10501158;28;20226;-69
2022/05/28 19:12:52;;;;;;;8.60;1.50;;;;;;;20.61;45.92;100146.47;10508658;28;20071;-72
2022/05/28 19:17:55;;;;;;;6.75;1.77;;;;;;;20.54;46.24;100132.28;10479238;28;20046;-72
2022/05/28 19:22:56;;;;;;;5.43;1.40;;;;;;;20.33;46.71;100131.00;10475552;28;20029;-70
2022/05/28 19:28:00;;;;;;;6.85;1.20;;;;;;;20.10;48.02;100126.47;10479817;28;20029;-71
2022/05/28 19:33:05;;;;;;;21.73;1.88;;;;;;;20.08;48.30;100140.19;10457535;28;20416;-70
2022/05/28 19:38:06;;;;;;;7.85;1.50;;;;;;;20.01;48.24;100153.81;10498151;28;20075;-69
2022/05/28 19:43:07;;;;;;;6.15;1.83;;;;;;;19.87;48.66;100132.72;10499879;28;20033;-71
2022/05/28 19:48:10;;;;;;;3.25;1.30;;;;;;;19.77;49.76;100144.03;10500366;28;20117;-70
2022/05/28 19:53:12;;;;;;;6.47;1.20;;;;;;;19.65;49.56;100141.34;10500651;28;20043;-69
2022/05/28 19:58:13;;;;;;;5.47;1.60;;;;;;;19.39;50.09;100129.09;10481979;28;20089;-70
2022/05/28 20:03:14;;;;;;;4.63;1.35;;;;;;;18.81;50.29;100038.22;10498988;28;20044;-69
2022/05/28 20:08:15;;;;;;;9.38;1.63;;;;;;;19.37;50.92;100148.19;10499863;28;20045;-70
2022/05/28 20:13:17;;;;;;;9.95;1.88;;;;;;;19.05;51.19;100117.97;10499304;28;20066;-69
2022/05/28 20:18:18;;;;;;;5.60;1.60;;;;;;;19.12;51.51;100134.06;10498913;28;20515;-69
2022/05/28 20:23:33;;;;;;;4.97;1.65;;;;;;;19.11;52.88;100157.44;10497979;28;20059;-70
2022/05/28 20:28:34;;;;;;;7.20;1.33;;;;;;;18.88;52.00;100136.66;10480611;28;20041;-70
2022/05/28 20:33:38;;;;;;;3.90;1.38;;;;;;;17.56;52.36;99950.84;10498438;28;20048;-71
2022/05/28 20:38:39;;;;;;;4.03;1.30;;;;;;;17.88;52.45;100004.44;10479608;28;20485;-71
2022/05/28 20:43:40;;;;;;;3.53;1.30;;;;;;;18.75;52.92;100152.97;10497284;28;20415;-70
2022/05/28 20:48:47;;;;;;;5.20;1.38;;;;;;;18.64;53.46;100168.00;10497705;28;20033;-70
2022/05/28 20:53:49;;;;;;;5.82;1.63;;;;;;;18.52;53.70;100158.19;10479411;28;20048;-70
2022/05/28 20:58:49;;;;;;;8.25;1.65;;;;;;;18.34;54.33;100138.34;10496740;28;20036;-71
2022/05/28 21:03:51;;;;;;;3.95;1.60;;;;;;;18.28;54.98;100149.13;10496718;28;20036;-70
2022/05/28 21:08:52;;;;;;;5.43;1.83;;;;;;;18.04;55.23;100114.03;10497006;28;20072;-70
2022/05/28 21:13:53;;;;;;;8.90;1.73;;;;;;;18.13;55.97;100153.03;10496822;28;20546;-69
2022/05/28 21:18:56;;;;;;;8.10;1.92;;;;;;;16.64;56.53;99938.00;10478232;28;20138;-70
2022/05/28 21:23:59;;;;;;;6.33;2.00;;;;;;;17.97;57.20;100156.28;10496900;28;20062;-70
2022/05/28 21:34:19;;;;;;;9.38;2.67;;;;;;;16.81;58.72;99980.41;10495763;28;20481;-70
2022/05/28 21:39:20;;;;;;;9.13;2.15;;;;;;;17.86;58.88;100135.50;10496897;28;20041;-70
2022/05/28 21:44:21;;;;;;;8.75;2.40;;;;;;;17.98;59.35;100149.88;10495829;28;20127;-69
2022/05/28 21:49:23;;;;;;;8.73;2.75;;;;;;;18.07;59.18;100123.50;10496090;28;20040;-71
2022/05/28 21:54:29;;;;;;;6.13;2.60;;;;;;;18.10;59.77;100141.88;10496460;28;20147;-71
2022/05/28 21:59:30;;;;;;;5.70;2.33;;;;;;;17.53;61.42;100144.66;10495159;28;20135;-71
2022/05/28 22:04:36;;;;;;;8.57;2.60;;;;;;;17.25;63.40;100159.28;10495662;28;20434;-71
2022/05/28 22:09:39;;;;;;;4.85;2.90;;;;;;;16.97;63.50;100143.56;10495146;28;20179;-71
2022/05/28 22:14:40;;;;;;;7.38;2.72;;;;;;;16.69;64.02;100121.56;10494839;28;20052;-71
2022/05/28 22:19:41;;;;;;;8.95;2.78;;;;;;;16.04;65.10;100041.22;10495989;28;20044;-71
2022/05/28 22:24:42;;;;;;;5.32;2.92;;;;;;;16.44;65.78;100120.44;10495206;28;20051;-71
2022/05/28 22:29:42;;;;;;;8.15;3.60;;;;;;;16.59;66.66;100146.16;10494660;28;20036;-71
2022/05/28 22:34:43;;;;;;;8.73;3.83;;;;;;;15.83;67.59;100037.75;10495106;28;20044;-71
2022/05/28 22:39:44;;;;;;;10.43;3.58;;;;;;;15.64;68.36;100011.81;10494351;28;20385;-71
2022/05/28 22:50:04;;;;;;;13.00;3.60;;;;;;;15.57;69.38;100027.06;10463604;28;20056;-71
2022/05/28 22:55:06;;;;;;;9.82;4.40;;;;;;;16.32;70.38;100154.28;10452545;28;20057;-70
2022/05/28 23:00:08;;;;;;;10.68;5.10;;;;;;;15.59;71.65;100041.91;10452687;28;20052;-70
2022/05/28 23:05:14;;;;;;;11.45;5.30;;;;;;;16.24;73.56;100143.78;10460169;28;20121;-71
2022/05/28 23:10:16;;;;;;;13.52;5.78;;;;;;;16.14;75.54;100146.91;10460155;28;20037;-70
2022/05/28 23:15:17;;;;;;;9.23;5.80;;;;;;;16.01;75.39;100152.31;10459611;28;20477;-70
2022/05/28 23:20:23;;;;;;;9.70;5.95;;;;;;;15.70;79.18;100116.28;10441751;28;20068;-70
2022/05/28 23:30:44;;;;;;;10.05;4.57;;;;;;;15.53;77.19;100131.06;10459184;28;20041;-70
2022/05/28 23:35:45;;;;;;;12.55;4.65;;;;;;;14.73;77.53;100031.16;10459740;28;20041;-70
2022/05/28 23:40:47;;;;;;;7.63;4.70;;;;;;;14.89;77.25;100070.06;10462778;28;20044;-70
2022/05/28 23:45:52;;;;;;;13.98;4.93;;;;;;;15.41;78.74;100165.66;10484344;28;20066;-70
2022/05/28 23:50:53;;;;;;;12.75;5.50;;;;;;;14.36;78.48;100001.25;10458915;28;20037;-71
2022/05/28 23:55:56;;;;;;;9.05;5.50;;;;;;;15.10;80.00;100146.66;10458801;28;20564;-71
